createdAt,value
2017-08-13T00:00:46.392Z,3.70
2017-08-13T00:03:14.519Z,3.73
2017-08-13T00:05:43.409Z,3.70
2017-08-13T00:08:12.333Z,3.50
2017-08-13T00:10:40.463Z,3.50
2017-08-13T00:13:09.390Z,3.53
2017-08-13T00:15:37.513Z,3.20
2017-08-13T00:18:05.692Z,3.80
2017-08-13T00:20:33.827Z,3.57
2017-08-13T00:23:01.965Z,5.30
2017-08-13T00:25:30.117Z,4.10
2017-08-13T00:27:59.016Z,3.17
2017-08-13T00:30:27.937Z,3.00
2017-08-13T00:32:56.069Z,5.03
2017-08-13T00:35:24.961Z,5.37
2017-08-13T00:37:53.890Z,3.50
2017-08-13T00:40:22.020Z,3.90
2017-08-13T00:42:50.944Z,3.27
2017-08-13T00:45:19.068Z,4.37
2017-08-13T00:47:47.218Z,3.50
2017-08-13T00:50:15.350Z,3.73
2017-08-13T00:52:43.486Z,3.20
2017-08-13T00:55:12.419Z,3.13
2017-08-13T00:57:40.542Z,3.70
2017-08-13T01:00:08.710Z,4.23
2017-08-13T01:02:36.855Z,4.10
2017-08-13T01:05:04.980Z,4.33
2017-08-13T01:07:33.143Z,3.67
2017-08-13T01:10:02.043Z,2.90
2017-08-13T01:12:30.203Z,2.80
2017-08-13T01:14:58.329Z,3.93
2017-08-13T01:17:26.484Z,4.37
2017-08-13T01:19:54.602Z,3.10
2017-08-13T01:22:22.730Z,3.23
2017-08-13T01:24:50.881Z,3.77
2017-08-13T01:27:19.017Z,4.27
2017-08-13T01:29:47.184Z,3.90
2017-08-13T01:32:15.321Z,3.80
2017-08-13T01:34:43.440Z,3.97
2017-08-13T01:37:11.606Z,4.20
2017-08-13T01:39:40.493Z,4.70
2017-08-13T01:42:09.427Z,3.83
2017-08-13T01:44:37.543Z,3.40
2017-08-13T01:47:05.710Z,3.30
2017-08-13T01:49:33.836Z,4.03
2017-08-13T01:52:01.958Z,2.80
2017-08-13T01:54:30.114Z,4.00
2017-08-13T01:56:58.241Z,5.10
2017-08-13T01:59:26.402Z,3.90
2017-08-13T02:01:54.569Z,3.97
2017-08-13T02:04:23.458Z,3.77
2017-08-13T02:06:52.381Z,3.50
2017-08-13T02:09:20.501Z,4.03
2017-08-13T02:11:48.653Z,4.20
2017-08-13T02:14:16.790Z,3.50
2017-08-13T02:16:44.918Z,4.90
2017-08-13T02:19:13.851Z,3.60
2017-08-13T02:21:41.972Z,3.90
2017-08-13T02:24:10.121Z,3.90
2017-08-13T02:26:38.247Z,3.43
2017-08-13T02:29:06.396Z,3.13
2017-08-13T02:31:35.291Z,3.30
2017-08-13T02:34:04.185Z,4.00
2017-08-13T02:36:32.333Z,4.40
2017-08-13T02:39:00.453Z,3.43
2017-08-13T02:41:28.601Z,3.87
2017-08-13T02:43:56.734Z,3.73
2017-08-13T02:46:24.852Z,2.90
2017-08-13T02:48:53.014Z,4.10
2017-08-13T02:51:21.151Z,3.00
2017-08-13T02:53:49.310Z,3.83
2017-08-13T02:56:17.428Z,3.80
2017-08-13T02:58:46.367Z,3.37
2017-08-13T03:01:14.498Z,3.00
2017-08-13T03:03:42.618Z,3.30
2017-08-13T03:06:10.786Z,3.13
2017-08-13T03:08:38.920Z,3.50
2017-08-13T03:11:07.115Z,4.17
2017-08-13T03:13:35.232Z,3.43
2017-08-13T03:16:04.185Z,3.53
2017-08-13T03:18:32.322Z,3.80
2017-08-13T03:21:00.461Z,3.60
2017-08-13T03:23:29.380Z,3.30
2017-08-13T03:25:57.516Z,3.00
2017-08-13T03:28:25.674Z,3.40
2017-08-13T03:30:53.798Z,3.13
2017-08-13T03:33:21.958Z,3.37
2017-08-13T03:35:50.082Z,4.10
2017-08-13T03:38:18.210Z,3.40
2017-08-13T03:40:46.370Z,2.77
2017-08-13T03:43:14.493Z,3.20
2017-08-13T03:45:42.657Z,2.60
2017-08-13T03:48:10.773Z,2.70
2017-08-13T03:50:39.656Z,4.10
2017-08-13T03:53:07.805Z,2.37
2017-08-13T03:55:35.938Z,3.30
2017-08-13T03:58:04.102Z,2.80
2017-08-13T04:00:32.220Z,3.37
2017-08-13T04:03:00.382Z,3.37
2017-08-13T04:05:28.519Z,2.90
2017-08-13T04:07:56.681Z,2.67
2017-08-13T04:10:24.819Z,2.90
2017-08-13T04:12:52.951Z,3.53
2017-08-13T04:15:21.113Z,3.70
2017-08-13T04:17:49.251Z,2.97
2017-08-13T04:20:18.174Z,2.53
2017-08-13T04:22:46.322Z,3.80
2017-08-13T04:25:14.474Z,3.80
2017-08-13T04:27:43.407Z,3.30
2017-08-13T04:30:11.544Z,3.30
2017-08-13T04:32:40.464Z,4.50
2017-08-13T04:35:08.588Z,2.67
2017-08-13T04:37:36.757Z,3.87
2017-08-13T04:40:04.891Z,3.20
2017-08-13T04:42:33.018Z,3.77
2017-08-13T04:45:01.168Z,3.30
2017-08-13T04:47:29.297Z,3.20
2017-08-13T04:49:57.475Z,2.93
2017-08-13T04:52:25.610Z,3.60
2017-08-13T04:54:53.737Z,4.00
2017-08-13T04:57:21.904Z,3.60
2017-08-13T04:59:50.057Z,3.30
2017-08-13T05:02:18.226Z,3.53
2017-08-13T05:04:46.345Z,2.97
2017-08-13T05:07:14.465Z,3.80
2017-08-13T05:09:42.625Z,2.73
2017-08-13T05:12:10.761Z,4.33
2017-08-13T05:14:38.911Z,3.40
2017-08-13T05:17:07.028Z,3.20
2017-08-13T05:19:35.182Z,4.97
2017-08-13T05:22:04.069Z,3.97
2017-08-13T05:24:32.957Z,3.23
2017-08-13T05:27:01.903Z,4.40
2017-08-13T05:29:30.039Z,4.13
2017-08-13T05:31:58.192Z,4.03
2017-08-13T05:34:27.087Z,4.23
2017-08-13T05:36:55.976Z,4.50
2017-08-13T05:39:24.892Z,4.27
2017-08-13T05:41:53.017Z,4.13
2017-08-13T05:44:21.178Z,3.33
2017-08-13T05:46:49.311Z,2.87
2017-08-13T05:49:17.469Z,3.30
2017-08-13T05:51:45.611Z,3.97
2017-08-13T05:54:14.534Z,3.57
2017-08-13T05:56:42.690Z,3.73
2017-08-13T05:59:10.836Z,4.20
2017-08-13T06:01:38.989Z,3.83
2017-08-13T06:04:07.123Z,4.23
2017-08-13T06:06:35.259Z,3.23
2017-08-13T06:09:04.191Z,3.83
2017-08-13T06:11:32.304Z,3.80
2017-08-13T06:14:00.452Z,3.77
2017-08-13T06:16:28.579Z,3.93
2017-08-13T06:18:56.699Z,3.03
2017-08-13T06:21:24.862Z,3.43
2017-08-13T06:23:52.994Z,3.17
2017-08-13T06:26:21.146Z,3.00
2017-08-13T06:28:50.032Z,2.73
2017-08-13T06:31:18.199Z,2.93
2017-08-13T06:33:46.339Z,2.90
2017-08-13T06:36:14.471Z,3.30
2017-08-13T06:38:42.626Z,2.77
2017-08-13T06:41:11.523Z,3.40
2017-08-13T06:43:40.436Z,3.73
2017-08-13T06:46:08.573Z,3.10
2017-08-13T06:48:37.507Z,2.80
2017-08-13T06:51:05.647Z,3.30
2017-08-13T06:53:34.547Z,2.97
2017-08-13T06:56:02.711Z,2.83
2017-08-13T06:58:30.832Z,2.87
2017-08-13T07:00:59.009Z,2.50
2017-08-13T07:03:27.170Z,3.30
2017-08-13T07:05:55.298Z,2.70
2017-08-13T07:08:23.458Z,2.97
2017-08-13T07:10:52.346Z,2.83
2017-08-13T07:13:21.265Z,2.50
2017-08-13T07:15:51.038Z,2.83
2017-08-13T07:18:19.940Z,2.63
2017-08-13T07:20:48.118Z,2.37
2017-08-13T07:23:16.237Z,2.97
2017-08-13T07:25:44.398Z,2.83
2017-08-13T07:28:12.522Z,2.30
2017-08-13T07:30:41.412Z,2.60
2017-08-13T07:33:10.339Z,2.40
2017-08-13T07:35:38.457Z,2.30
2017-08-13T07:38:06.614Z,2.13
2017-08-13T07:40:34.752Z,2.27
2017-08-13T07:43:02.919Z,2.07
2017-08-13T07:45:31.046Z,2.57
2017-08-13T07:48:00.006Z,2.33
2017-08-13T07:50:28.132Z,2.30
2017-08-13T07:52:56.249Z,2.40
2017-08-13T07:55:24.410Z,2.10
2017-08-13T07:57:52.537Z,2.50
2017-08-13T08:00:21.450Z,2.67
2017-08-13T08:02:49.596Z,2.20
2017-08-13T08:05:18.526Z,1.80
2017-08-13T08:07:46.668Z,2.10
2017-08-13T08:10:14.821Z,2.40
2017-08-13T08:12:43.718Z,2.20
2017-08-13T08:15:12.650Z,2.20
2017-08-13T08:17:40.787Z,2.30
2017-08-13T08:20:08.928Z,2.10
2017-08-13T08:22:37.077Z,1.93
2017-08-13T08:25:05.207Z,2.13
2017-08-13T08:27:33.365Z,1.97
2017-08-13T08:30:01.490Z,1.90
2017-08-13T08:32:29.619Z,2.00
2017-08-13T08:34:57.806Z,2.20
2017-08-13T08:37:25.931Z,2.40
2017-08-13T08:39:54.090Z,1.80
2017-08-13T08:42:22.279Z,2.13
2017-08-13T08:44:51.211Z,1.60
2017-08-13T08:47:19.333Z,1.70
2017-08-13T08:49:47.498Z,1.90
2017-08-13T08:52:15.620Z,3.10
2017-08-13T08:54:43.752Z,2.10
2017-08-13T08:57:12.691Z,2.37
2017-08-13T08:59:40.813Z,2.30
2017-08-13T09:02:09.751Z,1.90
2017-08-13T09:04:37.977Z,2.07
2017-08-13T09:07:06.879Z,1.93
2017-08-13T09:09:35.811Z,1.90
2017-08-13T09:12:03.949Z,2.00
2017-08-13T09:14:32.110Z,2.33
2017-08-13T09:17:01.001Z,2.10
2017-08-13T09:19:29.921Z,1.90
2017-08-13T09:21:58.098Z,2.00
2017-08-13T09:24:26.261Z,1.70
2017-08-13T09:26:54.388Z,1.90
2017-08-13T09:29:22.512Z,1.90
2017-08-13T09:31:50.675Z,2.10
2017-08-13T09:34:18.792Z,1.80
2017-08-13T09:36:46.960Z,1.83
2017-08-13T09:39:15.095Z,2.53
2017-08-13T09:41:43.223Z,2.10
2017-08-13T09:44:12.144Z,2.10
2017-08-13T09:46:40.265Z,1.90
2017-08-13T09:49:08.435Z,2.30
2017-08-13T09:51:36.568Z,2.50
2017-08-13T09:54:04.746Z,2.17
2017-08-13T09:56:32.864Z,2.10
2017-08-13T09:59:01.018Z,2.70
2017-08-13T10:01:29.144Z,2.40
2017-08-13T10:03:57.270Z,2.20
2017-08-13T10:06:26.213Z,1.80
2017-08-13T10:08:54.360Z,2.10
2017-08-13T10:11:23.245Z,1.83
2017-08-13T10:13:52.170Z,2.23
2017-08-13T10:16:20.298Z,2.33
2017-08-13T10:18:49.223Z,2.60
2017-08-13T10:21:17.372Z,2.60
2017-08-13T10:23:45.540Z,2.20
2017-08-13T10:26:14.438Z,2.03
2017-08-13T10:28:42.571Z,2.33
2017-08-13T10:31:10.745Z,2.50
2017-08-13T10:33:38.865Z,2.20
2017-08-13T10:36:07.013Z,1.63
2017-08-13T10:38:35.137Z,2.33
2017-08-13T10:41:03.303Z,1.90
2017-08-13T10:43:31.433Z,1.87
2017-08-13T10:45:59.553Z,1.77
2017-08-13T10:48:27.714Z,1.50
2017-08-13T10:50:55.834Z,1.67
2017-08-13T10:53:24.778Z,2.53
2017-08-13T10:55:52.906Z,1.90
2017-08-13T10:58:21.029Z,2.40
2017-08-13T11:00:49.178Z,2.47
2017-08-13T11:03:17.311Z,4.07
2017-08-13T11:05:45.491Z,1.70
2017-08-13T11:08:13.613Z,1.60
2017-08-13T11:10:41.745Z,1.60
2017-08-13T11:13:09.901Z,9.93
2017-08-13T11:15:38.800Z,3.13
2017-08-13T11:18:06.949Z,3.00
2017-08-13T11:20:35.842Z,1.57
2017-08-13T11:23:04.769Z,1.50
2017-08-13T11:25:32.905Z,1.90
2017-08-13T11:28:01.852Z,1.50
2017-08-13T11:30:30.015Z,1.60
2017-08-13T11:32:58.137Z,1.70
2017-08-13T11:35:27.057Z,1.80
2017-08-13T11:37:55.393Z,1.70
2017-08-13T11:40:23.566Z,1.47
2017-08-13T11:42:52.499Z,1.50
2017-08-13T11:45:20.635Z,1.80
2017-08-13T11:47:49.564Z,1.80
2017-08-13T11:50:17.690Z,1.90
2017-08-13T11:52:45.853Z,1.53
2017-08-13T11:55:13.973Z,1.40
2017-08-13T11:57:42.120Z,1.53
2017-08-13T12:00:11.010Z,1.63
2017-08-13T12:02:39.142Z,1.67
2017-08-13T12:05:07.326Z,1.60
2017-08-13T12:07:35.452Z,1.57
2017-08-13T12:10:03.636Z,1.70
2017-08-13T12:12:31.760Z,2.10
2017-08-13T12:14:59.939Z,1.70
2017-08-13T12:17:28.071Z,1.53
2017-08-13T12:19:56.209Z,1.60
2017-08-13T12:22:24.365Z,1.37
2017-08-13T12:24:52.486Z,1.80
2017-08-13T12:27:20.646Z,1.33
2017-08-13T12:29:48.765Z,1.40
2017-08-13T12:32:16.935Z,1.53
2017-08-13T12:34:45.842Z,1.93
2017-08-13T12:37:13.994Z,1.50
2017-08-13T12:39:42.899Z,2.17
2017-08-13T12:42:11.021Z,1.70
2017-08-13T12:44:39.167Z,1.50
2017-08-13T12:47:07.303Z,2.53
2017-08-13T12:49:35.554Z,2.00
2017-08-13T12:52:04.547Z,3.13
2017-08-13T12:54:32.722Z,2.27
2017-08-13T12:57:01.654Z,2.90
2017-08-13T12:59:29.787Z,1.57
2017-08-13T13:01:57.998Z,2.23
2017-08-13T13:04:26.162Z,2.27
2017-08-13T13:06:54.295Z,2.23
2017-08-13T13:09:23.230Z,1.93
2017-08-13T13:11:51.353Z,1.90
2017-08-13T13:14:19.515Z,1.83
2017-08-13T13:16:47.643Z,1.90
2017-08-13T13:19:15.805Z,1.60
2017-08-13T13:21:43.936Z,2.17
2017-08-13T13:24:12.061Z,1.90
2017-08-13T13:26:40.228Z,1.90
2017-08-13T13:29:08.344Z,2.00
2017-08-13T13:31:36.497Z,2.77
2017-08-13T13:34:04.620Z,2.30
2017-08-13T13:36:32.783Z,1.87
2017-08-13T13:39:01.687Z,2.70
2017-08-13T13:41:29.819Z,2.00
2017-08-13T13:43:57.972Z,2.00
2017-08-13T13:46:26.089Z,2.87
2017-08-13T13:48:54.251Z,2.30
2017-08-13T13:51:23.155Z,2.00
2017-08-13T13:53:51.277Z,1.77
2017-08-13T13:56:19.458Z,1.70
2017-08-13T13:58:47.595Z,2.00
2017-08-13T14:01:15.779Z,1.50
2017-08-13T14:03:43.905Z,2.20
2017-08-13T14:06:12.839Z,3.73
2017-08-13T14:08:40.975Z,2.30
2017-08-13T14:11:09.097Z,1.70
2017-08-13T14:13:37.260Z,1.70
2017-08-13T14:16:05.395Z,1.60
2017-08-13T14:18:33.545Z,1.67
2017-08-13T14:21:02.527Z,2.17
2017-08-13T14:23:31.454Z,1.87
2017-08-13T14:25:59.591Z,2.03
2017-08-13T14:28:28.481Z,1.60
2017-08-13T14:30:57.420Z,2.50
2017-08-13T14:33:25.558Z,1.80
2017-08-13T14:35:53.757Z,1.73
2017-08-13T14:38:21.907Z,1.70
2017-08-13T14:40:50.034Z,2.00
2017-08-13T14:43:18.189Z,1.40
2017-08-13T14:45:46.309Z,1.60
2017-08-13T14:48:15.226Z,1.40
2017-08-13T14:50:43.359Z,1.70
2017-08-13T14:53:12.290Z,1.93
2017-08-13T14:55:40.418Z,1.83
2017-08-13T14:58:09.361Z,2.17
2017-08-13T15:00:37.526Z,1.93
2017-08-13T15:03:05.642Z,2.63
2017-08-13T15:05:33.802Z,2.17
2017-08-13T15:08:01.930Z,2.10
2017-08-13T15:10:30.059Z,2.40
2017-08-13T15:12:58.219Z,1.40
2017-08-13T15:15:26.344Z,1.83
2017-08-13T15:17:54.520Z,2.07
2017-08-13T15:20:22.648Z,2.37
2017-08-13T15:22:51.534Z,2.07
2017-08-13T15:25:19.681Z,2.10
2017-08-13T15:27:47.803Z,2.10
2017-08-13T15:30:15.964Z,2.10
2017-08-13T15:32:44.105Z,2.00
2017-08-13T15:35:12.222Z,1.87
2017-08-13T15:37:40.387Z,2.03
2017-08-13T15:40:08.510Z,2.03
2017-08-13T15:42:36.673Z,1.67
2017-08-13T15:45:04.816Z,2.43
2017-08-13T15:47:32.937Z,3.00
2017-08-13T15:50:01.088Z,2.87
2017-08-13T15:52:29.215Z,2.07
2017-08-13T15:54:57.375Z,1.93
2017-08-13T15:57:26.261Z,2.03
2017-08-13T15:59:54.395Z,2.60
2017-08-13T16:02:22.546Z,2.03
2017-08-13T16:04:50.663Z,2.63
2017-08-13T16:07:19.600Z,3.40
2017-08-13T16:09:47.720Z,2.50
2017-08-13T16:12:15.846Z,1.80
2017-08-13T16:14:43.993Z,3.73
2017-08-13T16:17:12.123Z,3.00
2017-08-13T16:19:40.283Z,2.60
2017-08-13T16:22:08.400Z,2.07
2017-08-13T16:24:36.580Z,1.60
2017-08-13T16:27:04.706Z,1.90
2017-08-13T16:29:32.830Z,1.90
2017-08-13T16:32:00.986Z,2.17
2017-08-13T16:34:29.886Z,2.00
2017-08-13T16:36:58.130Z,2.10
2017-08-13T16:39:27.026Z,2.03
2017-08-13T16:41:56.075Z,2.03
2017-08-13T16:44:24.193Z,1.57
2017-08-13T16:46:53.085Z,1.60
2017-08-13T16:49:22.001Z,1.67
2017-08-13T16:51:50.120Z,1.83
2017-08-13T16:54:18.269Z,2.23
2017-08-13T16:56:46.393Z,1.60
2017-08-13T16:59:14.555Z,1.40
2017-08-13T17:01:43.459Z,2.87
2017-08-13T17:04:11.674Z,2.10
2017-08-13T17:06:39.797Z,1.90
2017-08-13T17:09:08.715Z,1.77
2017-08-13T17:11:36.837Z,3.97
2017-08-13T17:14:04.955Z,2.13
2017-08-13T17:16:33.159Z,1.80
2017-08-13T17:19:01.299Z,2.30
2017-08-13T17:21:29.458Z,2.23
2017-08-13T17:23:57.590Z,2.10
2017-08-13T17:26:25.745Z,1.87
2017-08-13T17:28:53.861Z,2.10
2017-08-13T17:31:22.026Z,2.23
2017-08-13T17:33:50.909Z,2.10
2017-08-13T17:36:19.843Z,2.40
2017-08-13T17:38:47.987Z,1.60
2017-08-13T17:41:16.114Z,1.30
2017-08-13T17:43:44.274Z,2.00
2017-08-13T17:46:12.429Z,1.90
2017-08-13T17:48:40.581Z,2.07
2017-08-13T17:51:08.705Z,2.10
2017-08-13T17:53:36.871Z,1.83
2017-08-13T17:56:04.992Z,2.50
2017-08-13T17:58:33.113Z,4.17
2017-08-13T18:01:01.275Z,2.97
2017-08-13T18:03:29.393Z,3.30
2017-08-13T18:05:57.548Z,2.27
2017-08-13T18:08:26.446Z,2.30
2017-08-13T18:10:55.332Z,3.13
2017-08-13T18:13:24.248Z,2.20
2017-08-13T18:15:52.378Z,3.27
2017-08-13T18:18:20.537Z,2.20
2017-08-13T18:20:48.656Z,3.07
2017-08-13T18:23:16.791Z,2.10
2017-08-13T18:25:44.938Z,2.47
2017-08-13T18:28:13.072Z,2.50
2017-08-13T18:30:41.269Z,2.50
2017-08-13T18:33:09.467Z,1.90
2017-08-13T18:35:37.592Z,2.40
2017-08-13T18:38:05.741Z,2.37
2017-08-13T18:40:34.630Z,2.27
2017-08-13T18:43:03.561Z,2.70
2017-08-13T18:45:31.693Z,2.00
2017-08-13T18:48:00.591Z,2.80
2017-08-13T18:50:28.759Z,2.80
2017-08-13T18:52:56.885Z,3.23
2017-08-13T18:55:25.066Z,2.43
2017-08-13T18:57:53.196Z,2.87
2017-08-13T19:00:21.441Z,2.10
2017-08-13T19:02:50.335Z,1.83
2017-08-13T19:05:18.508Z,1.77
2017-08-13T19:07:46.636Z,2.50
2017-08-13T19:10:14.771Z,2.20
2017-08-13T19:12:42.942Z,2.30
2017-08-13T19:15:11.075Z,2.73
2017-08-13T19:17:40.004Z,2.33
2017-08-13T19:20:08.143Z,2.13
2017-08-13T19:22:37.042Z,2.73
2017-08-13T19:25:05.261Z,2.37
2017-08-13T19:27:33.381Z,2.13
2017-08-13T19:30:02.305Z,2.77
2017-08-13T19:32:30.423Z,2.30
2017-08-13T19:34:58.558Z,2.60
2017-08-13T19:37:26.719Z,3.07
2017-08-13T19:39:54.836Z,1.93
2017-08-13T19:42:22.985Z,2.50
2017-08-13T19:44:51.119Z,3.20
2017-08-13T19:47:19.283Z,2.87
2017-08-13T19:49:47.424Z,3.03
2017-08-13T19:52:16.342Z,3.10
2017-08-13T19:54:44.503Z,2.30
2017-08-13T19:57:13.397Z,3.03
2017-08-13T19:59:41.559Z,2.60
2017-08-13T20:02:10.440Z,3.20
2017-08-13T20:04:39.364Z,3.60
2017-08-13T20:07:07.499Z,3.83
2017-08-13T20:09:36.391Z,3.63
2017-08-13T20:12:05.310Z,3.30
2017-08-13T20:14:33.433Z,2.73
2017-08-13T20:17:01.584Z,3.90
2017-08-13T20:19:29.793Z,4.13
2017-08-13T20:21:58.679Z,3.77
2017-08-13T20:24:27.616Z,3.27
2017-08-13T20:26:55.751Z,3.60
2017-08-13T20:29:24.687Z,3.30
2017-08-13T20:31:52.823Z,3.30
2017-08-13T20:34:21.074Z,3.53
2017-08-13T20:36:49.206Z,2.70
2017-08-13T20:39:17.371Z,3.00
2017-08-13T20:41:45.618Z,2.97
2017-08-13T20:44:13.737Z,2.43
2017-08-13T20:46:41.898Z,2.50
2017-08-13T20:49:10.022Z,3.70
2017-08-13T20:51:38.958Z,3.27
2017-08-13T20:54:07.127Z,2.57
2017-08-13T20:56:35.263Z,3.20
2017-08-13T20:59:03.434Z,2.50
2017-08-13T21:01:31.552Z,3.30
2017-08-13T21:03:59.714Z,3.23
2017-08-13T21:06:27.942Z,3.37
2017-08-13T21:08:56.845Z,3.37
2017-08-13T21:11:25.135Z,2.90
2017-08-13T21:13:53.258Z,3.80
2017-08-13T21:16:21.405Z,2.80
2017-08-13T21:18:49.530Z,3.00
2017-08-13T21:21:17.668Z,3.60
2017-08-13T21:23:45.835Z,3.77
2017-08-13T21:26:13.959Z,3.97
2017-08-13T21:28:42.138Z,3.43
2017-08-13T21:31:10.274Z,3.50
2017-08-13T21:33:39.199Z,3.57
2017-08-13T21:36:07.318Z,3.57
2017-08-13T21:38:36.242Z,3.90
2017-08-13T21:41:04.380Z,3.20
2017-08-13T21:43:33.268Z,3.20
2017-08-13T21:46:01.455Z,3.20
2017-08-13T21:48:30.433Z,3.00
2017-08-13T21:50:59.367Z,2.77
2017-08-13T21:53:27.502Z,3.50
2017-08-13T21:55:56.428Z,3.30
2017-08-13T21:58:24.559Z,3.33
2017-08-13T22:00:53.476Z,3.20
2017-08-13T22:03:37.419Z,2.93
2017-08-13T22:06:05.565Z,3.50
2017-08-13T22:08:34.453Z,3.50
2017-08-13T22:11:03.357Z,3.20
2017-08-13T22:13:31.514Z,4.07
2017-08-13T22:16:00.419Z,3.60
2017-08-13T22:18:29.342Z,3.40
2017-08-13T22:20:57.478Z,3.23
2017-08-13T22:23:25.611Z,3.70
2017-08-13T22:25:53.771Z,3.57
2017-08-13T22:28:21.885Z,3.33
2017-08-13T22:30:50.810Z,3.03
2017-08-13T22:33:18.929Z,3.27
2017-08-13T22:35:47.089Z,4.27
2017-08-13T22:38:15.213Z,3.80
2017-08-13T22:40:43.347Z,3.67
2017-08-13T22:43:12.283Z,3.67
2017-08-13T22:45:40.445Z,3.33
2017-08-13T22:48:08.606Z,2.87
2017-08-13T22:50:36.747Z,2.80
2017-08-13T22:53:05.661Z,2.97
2017-08-13T22:55:33.808Z,2.87
2017-08-13T22:58:01.923Z,3.30
2017-08-13T23:00:31.209Z,3.00
2017-08-13T23:02:59.344Z,3.80
2017-08-13T23:05:27.492Z,3.00
2017-08-13T23:07:55.612Z,3.37
2017-08-13T23:10:24.137Z,3.80
2017-08-13T23:12:52.257Z,3.50
2017-08-13T23:15:21.151Z,3.10
2017-08-13T23:17:50.069Z,3.87
2017-08-13T23:20:18.206Z,3.40
2017-08-13T23:22:47.126Z,3.83
2017-08-13T23:25:15.254Z,3.70
2017-08-13T23:27:44.140Z,3.73
2017-08-13T23:30:12.299Z,2.43
2017-08-13T23:32:40.431Z,3.73
2017-08-13T23:35:08.656Z,3.20
2017-08-13T23:37:37.543Z,3.17
2017-08-13T23:40:05.719Z,4.07
2017-08-13T23:42:34.605Z,2.80
2017-08-13T23:45:03.506Z,3.10
2017-08-13T23:47:32.435Z,4.20
2017-08-13T23:50:00.554Z,2.60
2017-08-13T23:52:28.709Z,2.90
2017-08-13T23:54:57.624Z,3.40
2017-08-13T23:57:26.552Z,3.20
2017-08-13T23:59:54.683Z,2.67
